Alpine, New York
Current Conditions -  °F | °C
As of 2:20 AM on Sunday 26 Oct 2014 (Local Time) from KELM Reporting Station
Haze Haze  
Wind Chill:   Ceiling: Unl
Heat Index:   Visibility: 1.7mi
Dew Point:   Wind: 0mph
Humidity: 100%   Direction: NA
Pressure: 29.64"   Gusts: NA
Location:  42.31°N, 76.72°W
Report Text: KELM 260620Z AUTO 00000KT 1 3/4SM BR FEW042 04/04 A2964 RMK AO2 VIS 1/2V5 T00440044
Loading
Personal Weather Stations






























Interactive Weather Map
Tropical Storm Tracking
New forecast layout! Learn more

10-Day Weather Forecast

Advertisements
Track Severe Weather on mobile